Terminal Aerodrome Forecast
Issued by NWS

Home | Current Version | Previous Version | Text Only | Print | Product List | Glossary On
Versions: 1 2 3 4 5 6 7 8 9 10 11 12 13 14 15 16 17 18 19 20
000
FTUS42 KTBW 191700
TAFPGD
TAF
KPGD 191740Z 1918/2018 06005KT P6SM FEW250
     FM192100 26005KT P6SM SCT250
     FM200100 VRB03KT P6SM SCT250
      TEMPO 2009/2013 3SM BR
     FM201400 15006KT P6SM FEW150 SCT250=

USA.gov is the U.S. government's official web portal to all federal, state and local government web resources and services.